Accueil
METAR-TAF:

METAR-TAF

Aéroports :

La Chaux-de-Fonds, Suisse

Aéroport régional Les Éplatures

latitude: 47-05-03N, longitude: 006-47-37E, altitude: 1027 m

Observation

Le bulletin a été fait il y a 38 minutes, à 20:50 UTC
Vent 1 kt de direction variable
Température 1°C
Humidité 93%
Pression 1010 hPa
Visibilité: 5000 m
Nuages fragmentés
neige faible

METAR: LSGC 262050Z AUTO VRB01KT 5000 -SN BKN/// 01/M00 Q1010

Heure: 23:28 (21:28 UTC)

Prévision

Le bulletin a été fait il y a 7 heures et 3 minutes, à 14:25 UTC
Prévision valable du 26 à 15 UTC au 26 à 24 UTC
Vent 5 kt de nord/nord-est
Visibilité 10 km ou plus
Nuages fragmentés à une hauteur de 1000 ft
Nuages fragmentés à une hauteur de 2000 ft
Temporairement
du 26 à 15 UTC au 26 à 24 UTC
Ciel couvert à une hauteur de 500 ft
neige faible

TAF: LSGC 261425Z 2615/2624 02005KT 9999 BKN010 BKN020 TEMPO 2615/2624 -SN OVC005

Observations et prévisions météorologiques de plus de 4000 aéroports (messages METAR et TAF).

Les stations disponibles sont représentées par des disques jaunes et rouges sur la carte.

Passer la souris dessus pour voir le nom de la station.

Cliquer dessus pour voir les observations et prévisions météorologiques.

Pour changer de carte: cliquez sur les boutons verts avec une croix noire pour zoomer, sur le bouton vert avec un tiret pour effectuer un zoom arrière, ou sur les flèches vertes pour les cartes adjacentes.


METAR-TAF: